KOPF/OPF METAR and TAF weather

Enter ICAO airport designator
Station Type Date Time Source
KOPF METAR 2023/02/04 00:53 UTC NOAA

KOPF 040053Z 35009KT 10SM SCT038 22/17 A3014 RMK AO2 PK WND 33027/0000 WSHFT 2356 SLP206 T02220172 $


Station Type Date Time Source
KOPF Decoded METAR 2023/02/04 00:53 UTC NOAA

MIAMI OPA LOCKA AIRPORT, FL, United States (KOPF) 25-54N 80-17W 16M
Feb 03, 2023 - 07:53 PM EST / 2023.02.04 0053 UTC
Wind: from the N (350 degrees) at 10 MPH (9 KT):0
Visibility: 10 mile(s):0
Sky conditions: partly cloudy
Temperature: 72.0 F (22.2 C)
Dew Point: 63.0 F (17.2 C)
Relative Humidity: 73%
Pressure (altimeter): 30.14 in. Hg (1020 hPa)
ob: KOPF 040053Z 35009KT 10SM SCT038 22/17 A3014 RMK AO2 PK WND 33027/0000 WSHFT 2356 SLP206 T02220172
cycle: 1

Station Type Date Time Source
KOPF TAF 2023/02/03 21:45 UTC NOAA

TAF
AMD KOPF 032043Z 0321/0418 25010KT P6SM SCT030
FM032200 27011KT P6SM SCT030 BKN060
FM040000 33012G18KT P6SM OVC050
FM040600 02015G23KT P6SM VCSH OVC030
FM041500 04018G26KT P6SM VCSH OVC025

Example: see airport list